createdAt,value
2022-11-16T00:04:06.883Z,99521.41
2022-11-16T00:09:23.404Z,99517.94
2022-11-16T00:14:28.894Z,99524.88
2022-11-16T00:19:30.293Z,99511.00
2022-11-16T00:24:31.172Z,99513.63
2022-11-16T00:29:33.300Z,99510.22
2022-11-16T00:34:34.313Z,99499.91
2022-11-16T00:39:35.263Z,99498.13
2022-11-16T00:44:37.411Z,99493.84
2022-11-16T00:49:38.564Z,99481.88
2022-11-16T00:54:39.476Z,99467.13
2022-11-16T00:59:41.854Z,99472.22
2022-11-16T01:04:42.671Z,99461.03
2022-11-16T01:09:43.456Z,99455.81
2022-11-16T01:14:48.102Z,99442.19
2022-11-16T01:19:48.854Z,99440.38
2022-11-16T01:24:49.829Z,99428.31
2022-11-16T01:29:51.995Z,99441.31
2022-11-16T01:34:52.833Z,99428.28
2022-11-16T01:39:58.984Z,99427.38
2022-11-16T01:45:06.531Z,99414.38
2022-11-16T01:50:11.729Z,99409.19
2022-11-16T01:55:15.412Z,99404.13
2022-11-16T02:00:43.831Z,99382.53
2022-11-16T02:06:25.330Z,99388.56
2022-11-16T02:11:54.104Z,99391.28
2022-11-16T02:17:06.201Z,99388.53
2022-11-16T02:22:25.594Z,99387.63
2022-11-16T02:27:50.696Z,99379.91
2022-11-16T02:32:56.333Z,99374.72
2022-11-16T02:38:01.037Z,99366.09
2022-11-16T02:43:08.113Z,99357.53
2022-11-16T02:48:16.072Z,99331.59
2022-11-16T02:53:16.874Z,99340.28
2022-11-16T02:58:21.411Z,99328.09
2022-11-16T03:03:32.819Z,99340.00
2022-11-16T03:08:37.667Z,99330.50
2022-11-16T03:13:41.777Z,99329.53
2022-11-16T03:18:45.680Z,99313.81
2022-11-16T03:23:47.435Z,99318.88
2022-11-16T03:28:56.304Z,99322.88
2022-11-16T03:34:01.493Z,99318.25
2022-11-16T03:39:09.413Z,99326.66
2022-11-16T03:44:14.598Z,99313.63
2022-11-16T03:49:16.777Z,99308.38
2022-11-16T03:54:18.845Z,99306.63
2022-11-16T03:59:19.831Z,99307.41
2022-11-16T04:04:39.577Z,99308.25
2022-11-16T04:10:00.113Z,99305.59
2022-11-16T04:15:18.457Z,99308.06
2022-11-16T04:20:38.321Z,99301.09
2022-11-16T04:25:41.209Z,99309.75
2022-11-16T04:31:09.281Z,99310.66
2022-11-16T04:36:30.700Z,99305.41
2022-11-16T04:41:50.522Z,99311.44
2022-11-16T04:47:10.156Z,99296.75
2022-11-16T04:52:14.199Z,99277.84
2022-11-16T04:57:16.732Z,99278.81
2022-11-16T05:02:18.191Z,99286.63
2022-11-16T05:07:28.424Z,99292.53
2022-11-16T05:12:37.402Z,99300.28
2022-11-16T05:17:40.627Z,99290.91
2022-11-16T05:22:55.036Z,99293.41
2022-11-16T05:27:57.581Z,99306.34
2022-11-16T05:32:58.383Z,99309.66
2022-11-16T05:38:00.848Z,99302.69
2022-11-16T05:43:02.397Z,99304.50
2022-11-16T05:48:09.141Z,99298.75
2022-11-16T05:53:11.611Z,99301.19
2022-11-16T05:58:13.247Z,99305.47
2022-11-16T06:03:14.399Z,99299.28
2022-11-16T06:08:16.617Z,99306.94
2022-11-16T06:13:17.674Z,99307.78
2022-11-16T06:18:19.063Z,99309.63
2022-11-16T06:23:21.697Z,99323.25
2022-11-16T06:28:23.773Z,99318.84
2022-11-16T06:33:25.677Z,99312.81
2022-11-16T06:38:30.412Z,99321.34
2022-11-16T06:43:31.485Z,99316.25
2022-11-16T06:48:34.795Z,99321.19
2022-11-16T06:53:41.147Z,99310.75
2022-11-16T06:58:43.002Z,99309.81
2022-11-16T07:03:45.232Z,99303.88
2022-11-16T07:08:49.218Z,99304.72
2022-11-16T07:13:56.561Z,99309.06
2022-11-16T07:18:59.027Z,99300.31
2022-11-16T07:24:03.632Z,99305.34
2022-11-16T07:29:05.755Z,99312.00
2022-11-16T07:34:08.620Z,99314.53
2022-11-16T07:39:25.298Z,99313.53
2022-11-16T07:44:28.090Z,99309.22
2022-11-16T07:49:39.322Z,99299.53
2022-11-16T07:54:51.343Z,99296.72
2022-11-16T07:59:53.406Z,99294.03
2022-11-16T08:04:54.483Z,99292.78
2022-11-16T08:10:00.758Z,99286.03
2022-11-16T08:15:01.846Z,99284.69
2022-11-16T08:20:02.946Z,99269.81
2022-11-16T08:25:07.008Z,99274.81
2022-11-16T08:30:10.013Z,99260.19
2022-11-16T08:35:12.736Z,99261.56
2022-11-16T08:40:15.920Z,99257.88
2022-11-16T08:45:17.830Z,99260.84
2022-11-16T08:50:19.557Z,99261.38
2022-11-16T08:55:21.699Z,99257.09
2022-11-16T09:00:22.622Z,99258.19
2022-11-16T09:05:23.427Z,99251.41
2022-11-16T09:10:26.085Z,99260.56
2022-11-16T09:15:28.060Z,99264.13
2022-11-16T09:20:29.331Z,99265.03
2022-11-16T09:25:31.465Z,99263.78
2022-11-16T09:30:32.357Z,99258.19
2022-11-16T09:35:34.965Z,99261.31
2022-11-16T09:40:39.463Z,99253.84
2022-11-16T09:45:45.962Z,99254.44
2022-11-16T09:50:49.619Z,99250.84
2022-11-16T09:55:54.018Z,99246.97
2022-11-16T10:00:59.891Z,99241.75
2022-11-16T10:06:03.906Z,99224.13
2022-11-16T10:11:24.242Z,99233.72
2022-11-16T10:16:35.852Z,99220.63
2022-11-16T10:21:51.534Z,99212.16
2022-11-16T10:27:03.332Z,99215.38
2022-11-16T10:32:18.073Z,99202.97
2022-11-16T10:37:18.963Z,99199.88
2022-11-16T10:42:27.898Z,99183.75
2022-11-16T10:47:38.533Z,99174.13
2022-11-16T10:52:39.324Z,99188.59
2022-11-16T10:57:57.724Z,99169.63
2022-11-16T11:02:58.521Z,99164.16
2022-11-16T11:08:04.683Z,99174.31
2022-11-16T11:13:21.822Z,99171.50
2022-11-16T11:18:27.895Z,99165.53
2022-11-16T11:23:29.282Z,99161.56
2022-11-16T11:28:33.535Z,99152.34
2022-11-16T11:33:37.532Z,99152.50
2022-11-16T11:39:00.231Z,99160.34
2022-11-16T11:44:04.320Z,99154.28
2022-11-16T11:49:14.494Z,99153.84
2022-11-16T11:54:19.098Z,99152.09
2022-11-16T11:59:24.613Z,99154.47
2022-11-16T12:04:58.211Z,99150.00
2022-11-16T12:10:08.749Z,99143.56
2022-11-16T12:15:32.678Z,99154.38
2022-11-16T12:20:44.095Z,99160.59
2022-11-16T12:25:55.773Z,99156.09
2022-11-16T12:31:12.887Z,99149.03
2022-11-16T12:36:25.732Z,99144.41
2022-11-16T12:41:50.125Z,99145.00
2022-11-16T12:47:01.109Z,99141.69
2022-11-16T12:52:14.780Z,99142.84
2022-11-16T12:57:26.064Z,99138.75
2022-11-16T13:02:42.235Z,99131.25
2022-11-16T13:07:46.656Z,99137.69
2022-11-16T13:12:55.869Z,99126.38
2022-11-16T13:18:09.088Z,99143.50
2022-11-16T13:23:15.661Z,99133.34
2022-11-16T13:28:25.433Z,99141.88
2022-11-16T13:33:40.703Z,99136.50
2022-11-16T13:38:52.226Z,99135.41
2022-11-16T13:43:53.131Z,99141.47
2022-11-16T13:48:55.265Z,99137.47
2022-11-16T13:59:17.741Z,99134.94
2022-11-16T14:04:55.783Z,99133.69
2022-11-16T14:09:56.663Z,99133.00
2022-11-16T14:15:13.540Z,99127.22
2022-11-16T14:20:21.162Z,99131.88
2022-11-16T14:25:33.271Z,99129.34
2022-11-16T14:30:44.700Z,99121.97
2022-11-16T14:35:52.571Z,99124.63
2022-11-16T14:40:59.724Z,99125.50
2022-11-16T14:46:05.307Z,99117.28
2022-11-16T14:51:11.515Z,99111.91
2022-11-16T14:56:14.315Z,99114.69
2022-11-16T15:01:15.942Z,99115.41
2022-11-16T15:06:18.181Z,99114.69
2022-11-16T15:11:25.823Z,99114.31
2022-11-16T15:16:26.615Z,99106.88
2022-11-16T15:21:29.823Z,99102.03
2022-11-16T15:26:30.644Z,99108.34
2022-11-16T15:31:31.485Z,99102.63
2022-11-16T15:36:40.135Z,99107.19
2022-11-16T15:41:41.273Z,99107.41
2022-11-16T15:46:43.433Z,99106.66
2022-11-16T15:51:45.792Z,99109.31
2022-11-16T15:56:46.657Z,99108.47
2022-11-16T16:01:47.758Z,99119.03
2022-11-16T16:06:51.674Z,99115.81
2022-11-16T16:11:52.831Z,99111.44
2022-11-16T16:16:55.727Z,99112.41
2022-11-16T16:21:58.637Z,99104.75
2022-11-16T16:26:59.456Z,99109.97
2022-11-16T16:32:00.310Z,99109.94
2022-11-16T16:37:02.512Z,99103.97
2022-11-16T16:42:04.207Z,99098.97
2022-11-16T16:47:05.184Z,99109.41
2022-11-16T16:52:08.239Z,99111.97
2022-11-16T16:57:14.237Z,99105.97
2022-11-16T17:02:15.547Z,99113.88
2022-11-16T17:07:17.941Z,99110.34
2022-11-16T17:12:18.918Z,99101.88
2022-11-16T17:17:20.304Z,99104.41
2022-11-16T17:22:22.788Z,99106.09
2022-11-16T17:27:23.649Z,99115.69
2022-11-16T17:32:24.512Z,99105.31
2022-11-16T17:37:26.763Z,99106.13
2022-11-16T17:42:27.550Z,99091.47
2022-11-16T17:47:28.370Z,99100.16
2022-11-16T17:52:30.516Z,99104.47
2022-11-16T17:57:31.393Z,99106.25
2022-11-16T18:02:32.488Z,99114.00
2022-11-16T18:07:36.177Z,99116.50
2022-11-16T18:12:38.524Z,99107.84
2022-11-16T18:17:39.334Z,99103.50
2022-11-16T18:22:41.470Z,99113.03
2022-11-16T18:27:42.257Z,99115.81
2022-11-16T18:32:43.082Z,99121.97
2022-11-16T18:37:45.205Z,99121.25
2022-11-16T18:42:46.040Z,99117.09
2022-11-16T18:47:47.063Z,99122.31
2022-11-16T18:52:49.228Z,99118.25
2022-11-16T18:57:50.131Z,99112.31
2022-11-16T19:02:50.945Z,99106.25
2022-11-16T19:07:53.188Z,99104.63
2022-11-16T19:12:54.008Z,99105.63
2022-11-16T19:18:19.775Z,99108.34
2022-11-16T19:23:16.943Z,99099.00
2022-11-16T19:28:17.768Z,99098.19
2022-11-16T19:33:18.545Z,99104.34
2022-11-16T19:38:20.697Z,99107.88
2022-11-16T19:43:21.743Z,99108.03
2022-11-16T19:48:22.664Z,99101.13
2022-11-16T19:53:24.879Z,99095.34
2022-11-16T19:58:25.657Z,99101.41
2022-11-16T20:03:26.603Z,99099.72
2022-11-16T20:08:28.890Z,99105.00
2022-11-16T20:13:29.679Z,99094.63
2022-11-16T20:18:32.045Z,99090.50
2022-11-16T20:23:35.476Z,99100.00
2022-11-16T20:28:37.011Z,99096.47
2022-11-16T20:33:38.238Z,99082.75
2022-11-16T20:38:41.186Z,99082.88
2022-11-16T20:43:43.434Z,99085.50
2022-11-16T20:48:44.900Z,99088.88
2022-11-16T20:53:48.703Z,99094.94
2022-11-16T20:58:50.545Z,99089.75
2022-11-16T21:03:51.318Z,99095.75
2022-11-16T21:08:53.698Z,99092.28
2022-11-16T21:14:12.161Z,99100.06
2022-11-16T21:19:13.941Z,99100.94
2022-11-16T21:24:16.058Z,99100.13
2022-11-16T21:29:16.865Z,99095.03
2022-11-16T21:34:18.790Z,99102.81
2022-11-16T21:39:20.902Z,99113.06
2022-11-16T21:44:21.666Z,99106.19
2022-11-16T21:49:22.413Z,99114.72
2022-11-16T21:54:44.626Z,99121.63
2022-11-16T21:59:45.439Z,99113.91
2022-11-16T22:05:03.638Z,99102.72
2022-11-16T22:10:08.531Z,99106.28
2022-11-16T22:15:10.247Z,99112.31
2022-11-16T22:20:11.716Z,99109.72
2022-11-16T22:25:14.178Z,99115.19
2022-11-16T22:30:16.220Z,99113.34
2022-11-16T22:35:17.168Z,99115.00
2022-11-16T22:40:19.297Z,99109.97
2022-11-16T22:45:20.049Z,99111.56
2022-11-16T22:50:21.271Z,99108.22
2022-11-16T22:55:23.474Z,99106.50
2022-11-16T23:00:24.244Z,99095.41
2022-11-16T23:05:25.014Z,99104.84
2022-11-16T23:10:27.290Z,99107.53
2022-11-16T23:15:45.787Z,99092.97
2022-11-16T23:21:03.918Z,99102.44
2022-11-16T23:26:30.287Z,99091.16
2022-11-16T23:31:31.062Z,99083.78
2022-11-16T23:36:31.826Z,99091.44
2022-11-16T23:41:51.555Z,99084.41
2022-11-16T23:46:52.335Z,99083.53
2022-11-16T23:51:53.122Z,99093.84
2022-11-16T23:56:55.219Z,99087.94
